National Weather Service Raw Text Product

Displaying AFOS PIL: TAFALO Received: 2017-09-14 05:20 UTC


286 
FTUS43 KDMX 140520
TAFALO
TAF
KALO 140520Z 1406/1506 VRB03KT P6SM SCT150
     FM141300 17009KT P6SM BKN110
     FM141600 18013KT P6SM FEW110
     FM142300 15010KT P6SM BKN200=